KAPC/APC METAR and TAF weather

Enter ICAO airport designator
Station Type Date Time Source
KAPC METAR 2020/07/07 08:54 UTC NOAA

KAPC 070854Z AUTO 25003KT 10SM CLR A2992 RMK AO2 SLP125 54000 $


Station Type Date Time Source
KAPC Decoded METAR 2020/07/07 08:54 UTC NOAA

NAPA COUNTY AIRPORT, CA, United States (KAPC) 38-12N 122-17W 13M
Jul 07, 2020 - 04:54 AM EDT / 2020.07.07 0854 UTC
Wind: from the WSW (250 degrees) at 3 MPH (3 KT):0
Visibility: 10 mile(s):0
Sky conditions: clear
Pressure (altimeter): 29.92 in. Hg (1013 hPa)
Pressure tendency: the same as three hours ago
ob: KAPC 070854Z AUTO 25003KT 10SM CLR A2992 RMK AO2 SLP125 54000
cycle: 9

Station Type Date Time Source
KAPC TAF 2020/07/07 06:30 UTC NOAA

TAF KAPC 070526Z 0706/0806 24010KT P6SM SKC
FM071100 25006KT P6SM SKC
FM071800 21007KT P6SM SKC
FM072200 21013KT P6SM SKC
FM080400 22007KT P6SM SKC

Example: see airport list